ADDS METAR Data INFO
IDs: Format: Raw Decoded Include TAF

Data at: 0221 UTC 14 Dec 2017

KMIV 140213Z AUTO 22007G19KT 1 3/4SM -SN OVC027 M02/M06 A2973 RMK AO2 SNB0157 P0000 T10221056
KMIV 140154Z AUTO 22007KT 190V260 10SM OVC041 M02/M11 A2973 RMK AO2 SLP067 T10171111
KMIV 140054Z AUTO 00000KT 10SM FEW080 OVC100 M02/M12 A2973 RMK AO2 SLP066 T10221117
KMIV 132354Z AUTO 26003KT 10SM CLR M02/M13 A2975 RMK AO2 SLP075 T10221128 11006 21033 50006
KMIV 132254Z AUTO 26007KT 10SM CLR M03/M13 A2976 RMK AO2 SLP076 T10281133
KMIV 132154Z AUTO 26010KT 10SM CLR M03/M14 A2974 RMK AO2 SLP072 T10281139
KMIV 132054Z AUTO 27012KT 10SM CLR M01/M14 A2973 RMK AO2 SLP068 T10111139 53004
KMIV 131954Z AUTO 27014KT 10SM CLR M01/M14 A2973 RMK AO2 PK WND 30027/1924 SLP067 T10061139
KMIV 131854Z AUTO 30019G28KT 10SM CLR M01/M13 A2972 RMK AO2 PK WND 29031/1812 SLP063 T10061133
KMIV 131754Z AUTO 27019G29KT 10SM CLR M01/M13 A2972 RMK AO2 PK WND 27032/1730 SLP064 T10111128 11006 21061 55005
KMIV 131654Z AUTO 27020G31KT 10SM CLR M01/M13 A2971 RMK AO2 PK WND 26031/1648 SLP061 T10111128
KMIV 131554Z AUTO 29020G29KT 10SM CLR M02/M13 A2973 RMK AO2 PK WND 27034/1503 SLP068 T10221133
KMIV 131454Z AUTO 27020G33KT 10SM FEW049 M03/M13 A2974 RMK AO2 PK WND 27033/1448 SLP069 T10331133 51012
KMIV 131354Z AUTO 27019G30KT 10SM CLR M04/M14 A2973 RMK AO2 PK WND 26032/1338 SLP067 T10441139
KMIV 131254Z AUTO 27015G24KT 10SM CLR M06/M13 A2972 RMK AO2 PK WND 27033/1243 SLP062 T10561133
KMIV 131154Z AUTO 28017G29KT 10SM CLR M06/M13 A2970 RMK AO2 PK WND 27033/1108 SLP058 70002 T10611133 11050 21061 53011
KMIV 131054Z AUTO 27015G22KT 10SM CLR M06/M14 A2968 RMK AO2 PK WND 29030/0955 SLP050 T10611144
KMIV 130954Z AUTO 28016G31KT 10SM CLR M06/M16 A2967 RMK AO2 PK WND 29031/0954 SLP047 T10611156
KMIV 130854Z AUTO 29013KT 10SM CLR M06/M16 A2967 RMK AO2 SLP047 T10611156 51008
KMIV 130754Z AUTO 29016G24KT 10SM CLR M06/M17 A2967 RMK AO2 PK WND 30029/0658 SLP045 T10611167
KMIV 130654Z AUTO 30015G22KT 10SM CLR M06/M17 A2965 RMK AO2 PK WND 30034/0634 SLP042 T10561167
KMIV 130554Z AUTO 30024G32KT 10SM CLR M05/M17 A2965 RMK AO2 PK WND 30033/0537 SLP038 T10501172 10033 21050 51027
KMIV 130454Z AUTO 30016G28KT 10SM CLR M04/M14 A2962 RMK AO2 PK WND 29028/0427 SLP028 T10441144 400891044
KMIV 130354Z AUTO 31013G29KT 10SM CLR M03/M14 A2960 RMK AO2 PK WND 31038/0311 SLP023 T10331139
KMIV 130254Z AUTO 31022G34KT 10SM CLR M02/M12 A2956 RMK AO2 PK WND 32034/0253 SLP011 T10171122 51009
KMIV 130154Z AUTO 31013G23KT 10SM FEW110 01/M08 A2956 RMK AO2 PK WND 30029/0103 SLP010 T00061083
KMIV 130054Z AUTO 31020G31KT 10SM BKN095 OVC120 03/M06 A2955 RMK AO2 PK WND 33031/0054 SLP005 T00281061
KMIV 122354Z AUTO 32017G24KT 10SM OVC100 03/M06 A2954 RMK AO2 PK WND 31029/2343 SLP001 60002 T00331056 10089 20033 53016
KMIV 122254Z AUTO 28004KT 10SM FEW050 SCT055 OVC080 04/02 A2951 RMK AO2 RAB2157E45 SLP993 P0001 T00390022
KMIV 122154Z AUTO 27003KT 10SM FEW039 BKN055 OVC080 04/03 A2950 RMK AO2 RAB02E47 SLP990 P0001 T00440033
KMIV 122054Z AUTO 28008KT 10SM OVC038 07/01 A2949 RMK AO2 RAB29E54 SLP986 P0000 60000 T00670011 55002
KMIV 121954Z AUTO 29008KT 10SM OVC060 08/01 A2947 RMK AO2 RAE1859 SLP979 P0000 T00780006
KMIV 121854Z AUTO 29007KT 10SM -RA BKN047 BKN055 OVC070 08/01 A2948 RMK AO2 RAB41 SLP983 P0000 T00830006
KMIV 121754Z AUTO 26007KT 10SM FEW110 09/03 A2950 RMK AO2 SLP988 T00890028 10089 20078 56031
KMIV 121654Z AUTO 26007KT 10SM FEW085 09/02 A2952 RMK AO2 SLP996 T00890022
KMIV 121554Z AUTO 24007KT 10SM SCT120 08/03 A2956 RMK AO2 SLP010 T00780028
KMIV 121454Z AUTO 21008G15KT 170V260 10SM CLR 08/02 A2959 RMK AO2 SLP019 T00830022 55025